sensor_id;sensor_type;location;lat;lon;timestamp;P1;durP1;ratioP1;P2;durP2;ratioP2
82346;SDS011;72757;56.900;60.610;2023-09-19T00:01:28;5.32;;;4.82;;
82346;SDS011;72757;56.900;60.610;2023-09-19T00:06:23;6.35;;;5.80;;
82346;SDS011;72757;56.900;60.610;2023-09-19T00:08:51;8.57;;;5.35;;
82346;SDS011;72757;56.900;60.610;2023-09-19T00:11:16;5.75;;;4.75;;
82346;SDS011;72757;56.900;60.610;2023-09-19T00:13:42;5.00;;;4.13;;
82346;SDS011;72757;56.900;60.610;2023-09-19T00:16:08;5.53;;;5.03;;
82346;SDS011;72757;56.900;60.610;2023-09-19T00:18:35;5.18;;;4.53;;
82346;SDS011;72757;56.900;60.610;2023-09-19T00:21:01;13.02;;;4.78;;
82346;SDS011;72757;56.900;60.610;2023-09-19T00:23:26;7.67;;;5.83;;
82346;SDS011;72757;56.900;60.610;2023-09-19T00:25:52;5.28;;;4.70;;
82346;SDS011;72757;56.900;60.610;2023-09-19T00:28:17;9.63;;;4.45;;
82346;SDS011;72757;56.900;60.610;2023-09-19T00:30:45;9.60;;;5.30;;
82346;SDS011;72757;56.900;60.610;2023-09-19T00:33:11;5.55;;;4.93;;
82346;SDS011;72757;56.900;60.610;2023-09-19T00:35:46;10.80;;;5.80;;
82346;SDS011;72757;56.900;60.610;2023-09-19T00:38:11;14.70;;;5.53;;
82346;SDS011;72757;56.900;60.610;2023-09-19T00:40:45;8.90;;;6.00;;
82346;SDS011;72757;56.900;60.610;2023-09-19T00:43:10;8.77;;;6.20;;
82346;SDS011;72757;56.900;60.610;2023-09-19T00:45:36;8.60;;;5.45;;
82346;SDS011;72757;56.900;60.610;2023-09-19T00:48:03;4.70;;;4.20;;
82346;SDS011;72757;56.900;60.610;2023-09-19T00:50:36;6.53;;;5.80;;
82346;SDS011;72757;56.900;60.610;2023-09-19T00:53:04;4.70;;;3.22;;
82346;SDS011;72757;56.900;60.610;2023-09-19T00:55:33;5.18;;;4.50;;
82346;SDS011;72757;56.900;60.610;2023-09-19T00:57:59;9.85;;;6.40;;
82346;SDS011;72757;56.900;60.610;2023-09-19T01:00:24;7.75;;;5.43;;
82346;SDS011;72757;56.900;60.610;2023-09-19T01:02:50;6.88;;;6.03;;
82346;SDS011;72757;56.900;60.610;2023-09-19T01:05:15;7.17;;;5.43;;
82346;SDS011;72757;56.900;60.610;2023-09-19T01:07:41;8.73;;;6.72;;
82346;SDS011;72757;56.900;60.610;2023-09-19T01:10:08;8.20;;;7.13;;
82346;SDS011;72757;56.900;60.610;2023-09-19T01:17:48;5.78;;;4.93;;
82346;SDS011;72757;56.900;60.610;2023-09-19T01:20:19;10.68;;;7.63;;
82346;SDS011;72757;56.900;60.610;2023-09-19T01:32:34;6.33;;;5.33;;
82346;SDS011;72757;56.900;60.610;2023-09-19T01:34:59;6.53;;;5.30;;
82346;SDS011;72757;56.900;60.610;2023-09-19T01:37:30;14.13;;;6.07;;
82346;SDS011;72757;56.900;60.610;2023-09-19T01:40:03;9.18;;;6.25;;
82346;SDS011;72757;56.900;60.610;2023-09-19T01:47:51;5.53;;;4.80;;
82346;SDS011;72757;56.900;60.610;2023-09-19T01:50:29;5.13;;;4.63;;
82346;SDS011;72757;56.900;60.610;2023-09-19T01:52:57;6.72;;;4.05;;
82346;SDS011;72757;56.900;60.610;2023-09-19T01:55:26;11.27;;;5.65;;
82346;SDS011;72757;56.900;60.610;2023-09-19T01:58:06;7.55;;;6.50;;
82346;SDS011;72757;56.900;60.610;2023-09-19T02:00:33;5.00;;;4.38;;
82346;SDS011;72757;56.900;60.610;2023-09-19T02:03:00;6.35;;;5.80;;
82346;SDS011;72757;56.900;60.610;2023-09-19T02:05:26;6.93;;;5.07;;
82346;SDS011;72757;56.900;60.610;2023-09-19T02:10:57;4.75;;;4.40;;
82346;SDS011;72757;56.900;60.610;2023-09-19T02:13:22;5.03;;;4.47;;
82346;SDS011;72757;56.900;60.610;2023-09-19T02:15:50;3.42;;;3.05;;
82346;SDS011;72757;56.900;60.610;2023-09-19T02:18:16;5.43;;;4.68;;
82346;SDS011;72757;56.900;60.610;2023-09-19T02:20:42;8.05;;;2.70;;
82346;SDS011;72757;56.900;60.610;2023-09-19T02:23:07;4.40;;;4.00;;
82346;SDS011;72757;56.900;60.610;2023-09-19T02:25:33;6.72;;;5.93;;
82346;SDS011;72757;56.900;60.610;2023-09-19T02:27:58;3.90;;;3.50;;
82346;SDS011;72757;56.900;60.610;2023-09-19T02:30:24;4.45;;;3.72;;
82346;SDS011;72757;56.900;60.610;2023-09-19T02:32:51;6.70;;;5.20;;
82346;SDS011;72757;56.900;60.610;2023-09-19T02:35:16;4.63;;;4.15;;
82346;SDS011;72757;56.900;60.610;2023-09-19T02:37:41;9.95;;;4.43;;
82346;SDS011;72757;56.900;60.610;2023-09-19T02:40:07;9.32;;;3.80;;
82346;SDS011;72757;56.900;60.610;2023-09-19T02:42:44;4.03;;;3.60;;
82346;SDS011;72757;56.900;60.610;2023-09-19T02:45:14;3.38;;;3.15;;
82346;SDS011;72757;56.900;60.610;2023-09-19T02:47:42;5.22;;;4.20;;
82346;SDS011;72757;56.900;60.610;2023-09-19T02:50:08;8.00;;;5.15;;
82346;SDS011;72757;56.900;60.610;2023-09-19T02:52:35;4.13;;;3.78;;
82346;SDS011;72757;56.900;60.610;2023-09-19T02:55:01;5.10;;;4.67;;
82346;SDS011;72757;56.900;60.610;2023-09-19T02:57:26;5.50;;;3.80;;
82346;SDS011;72757;56.900;60.610;2023-09-19T02:59:52;5.05;;;4.60;;
82346;SDS011;72757;56.900;60.610;2023-09-19T03:02:18;9.13;;;5.60;;
82346;SDS011;72757;56.900;60.610;2023-09-19T03:04:44;4.07;;;3.75;;
82346;SDS011;72757;56.900;60.610;2023-09-19T03:07:10;13.32;;;4.10;;
82346;SDS011;72757;56.900;60.610;2023-09-19T03:09:36;5.38;;;4.63;;
82346;SDS011;72757;56.900;60.610;2023-09-19T03:12:01;3.03;;;2.80;;
82346;SDS011;72757;56.900;60.610;2023-09-19T03:14:29;7.15;;;4.85;;
82346;SDS011;72757;56.900;60.610;2023-09-19T03:17:00;6.30;;;4.32;;
82346;SDS011;72757;56.900;60.610;2023-09-19T03:19:25;7.75;;;4.55;;
82346;SDS011;72757;56.900;60.610;2023-09-19T03:21:51;5.85;;;4.78;;
82346;SDS011;72757;56.900;60.610;2023-09-19T03:24:16;4.35;;;4.05;;
82346;SDS011;72757;56.900;60.610;2023-09-19T03:26:42;6.10;;;3.95;;
82346;SDS011;72757;56.900;60.610;2023-09-19T03:29:07;5.93;;;3.88;;
82346;SDS011;72757;56.900;60.610;2023-09-19T03:31:32;5.33;;;4.87;;
82346;SDS011;72757;56.900;60.610;2023-09-19T03:33:58;4.55;;;3.83;;
82346;SDS011;72757;56.900;60.610;2023-09-19T03:36:23;3.00;;;2.70;;
82346;SDS011;72757;56.900;60.610;2023-09-19T03:38:48;7.18;;;4.53;;
82346;SDS011;72757;56.900;60.610;2023-09-19T03:41:14;5.90;;;3.63;;
82346;SDS011;72757;56.900;60.610;2023-09-19T03:43:42;5.50;;;5.03;;
82346;SDS011;72757;56.900;60.610;2023-09-19T03:46:07;9.38;;;5.38;;
82346;SDS011;72757;56.900;60.610;2023-09-19T03:48:33;7.95;;;5.93;;
82346;SDS011;72757;56.900;60.610;2023-09-19T03:50:58;6.63;;;4.68;;
82346;SDS011;72757;56.900;60.610;2023-09-19T03:53:24;7.55;;;4.38;;
82346;SDS011;72757;56.900;60.610;2023-09-19T03:55:49;5.68;;;4.53;;
82346;SDS011;72757;56.900;60.610;2023-09-19T03:58:15;7.20;;;4.18;;
82346;SDS011;72757;56.900;60.610;2023-09-19T04:00:40;5.75;;;4.97;;
82346;SDS011;72757;56.900;60.610;2023-09-19T04:03:05;5.18;;;3.90;;
82346;SDS011;72757;56.900;60.610;2023-09-19T04:05:31;8.95;;;3.75;;
82346;SDS011;72757;56.900;60.610;2023-09-19T04:07:57;5.55;;;3.58;;
82346;SDS011;72757;56.900;60.610;2023-09-19T04:10:22;4.70;;;3.70;;
82346;SDS011;72757;56.900;60.610;2023-09-19T04:12:54;3.33;;;3.03;;
82346;SDS011;72757;56.900;60.610;2023-09-19T04:15:20;4.68;;;3.92;;
82346;SDS011;72757;56.900;60.610;2023-09-19T04:17:47;8.88;;;3.65;;
82346;SDS011;72757;56.900;60.610;2023-09-19T04:20:12;4.72;;;4.32;;
82346;SDS011;72757;56.900;60.610;2023-09-19T04:22:38;4.38;;;3.97;;
82346;SDS011;72757;56.900;60.610;2023-09-19T04:25:10;4.28;;;3.85;;
82346;SDS011;72757;56.900;60.610;2023-09-19T04:27:35;4.97;;;3.72;;
82346;SDS011;72757;56.900;60.610;2023-09-19T04:30:01;4.82;;;4.38;;
82346;SDS011;72757;56.900;60.610;2023-09-19T04:32:28;8.63;;;4.47;;
82346;SDS011;72757;56.900;60.610;2023-09-19T04:34:54;4.15;;;3.85;;
82346;SDS011;72757;56.900;60.610;2023-09-19T04:37:24;7.85;;;4.47;;
82346;SDS011;72757;56.900;60.610;2023-09-19T04:39:50;4.85;;;3.53;;
82346;SDS011;72757;56.900;60.610;2023-09-19T04:42:19;5.85;;;4.07;;
82346;SDS011;72757;56.900;60.610;2023-09-19T04:44:44;3.47;;;2.93;;
82346;SDS011;72757;56.900;60.610;2023-09-19T04:47:10;4.77;;;3.93;;
82346;SDS011;72757;56.900;60.610;2023-09-19T04:49:37;4.28;;;3.88;;
82346;SDS011;72757;56.900;60.610;2023-09-19T04:52:02;10.17;;;3.70;;
82346;SDS011;72757;56.900;60.610;2023-09-19T04:54:27;4.45;;;4.00;;
82346;SDS011;72757;56.900;60.610;2023-09-19T04:56:53;5.60;;;4.03;;
82346;SDS011;72757;56.900;60.610;2023-09-19T04:59:18;4.73;;;4.00;;
82346;SDS011;72757;56.900;60.610;2023-09-19T05:01:43;13.33;;;3.53;;
82346;SDS011;72757;56.900;60.610;2023-09-19T05:04:09;2.03;;;1.67;;
82346;SDS011;72757;56.900;60.610;2023-09-19T05:06:34;3.17;;;2.30;;
82346;SDS011;72757;56.900;60.610;2023-09-19T05:09:00;5.25;;;2.83;;
82346;SDS011;72757;56.900;60.610;2023-09-19T05:11:26;5.72;;;3.55;;
82346;SDS011;72757;56.900;60.610;2023-09-19T05:13:51;12.43;;;3.80;;
82346;SDS011;72757;56.900;60.610;2023-09-19T05:16:18;5.15;;;4.05;;
82346;SDS011;72757;56.900;60.610;2023-09-19T05:18:43;4.20;;;3.80;;
82346;SDS011;72757;56.900;60.610;2023-09-19T05:21:09;4.90;;;4.10;;
82346;SDS011;72757;56.900;60.610;2023-09-19T05:23:34;7.15;;;3.70;;
82346;SDS011;72757;56.900;60.610;2023-09-19T05:25:59;7.18;;;4.07;;
82346;SDS011;72757;56.900;60.610;2023-09-19T05:28:25;8.15;;;4.13;;
82346;SDS011;72757;56.900;60.610;2023-09-19T05:30:50;6.35;;;3.55;;
82346;SDS011;72757;56.900;60.610;2023-09-19T05:33:16;3.20;;;2.90;;
82346;SDS011;72757;56.900;60.610;2023-09-19T05:35:43;4.32;;;3.95;;
82346;SDS011;72757;56.900;60.610;2023-09-19T05:38:08;3.95;;;3.38;;
82346;SDS011;72757;56.900;60.610;2023-09-19T05:40:34;4.63;;;3.03;;
82346;SDS011;72757;56.900;60.610;2023-09-19T05:43:00;4.13;;;3.80;;
82346;SDS011;72757;56.900;60.610;2023-09-19T05:45:25;3.08;;;2.75;;
82346;SDS011;72757;56.900;60.610;2023-09-19T05:47:52;3.90;;;3.03;;
82346;SDS011;72757;56.900;60.610;2023-09-19T05:50:21;11.82;;;5.30;;
82346;SDS011;72757;56.900;60.610;2023-09-19T05:52:52;5.13;;;4.63;;
82346;SDS011;72757;56.900;60.610;2023-09-19T05:55:18;4.78;;;3.42;;
82346;SDS011;72757;56.900;60.610;2023-09-19T05:57:43;4.43;;;3.10;;
82346;SDS011;72757;56.900;60.610;2023-09-19T06:00:15;5.57;;;3.53;;
82346;SDS011;72757;56.900;60.610;2023-09-19T06:02:43;4.38;;;3.22;;
82346;SDS011;72757;56.900;60.610;2023-09-19T06:05:10;3.05;;;2.60;;
82346;SDS011;72757;56.900;60.610;2023-09-19T06:07:35;3.72;;;3.13;;
82346;SDS011;72757;56.900;60.610;2023-09-19T06:10:05;4.85;;;3.10;;
82346;SDS011;72757;56.900;60.610;2023-09-19T06:12:32;3.47;;;2.63;;
82346;SDS011;72757;56.900;60.610;2023-09-19T06:15:02;4.95;;;3.05;;
82346;SDS011;72757;56.900;60.610;2023-09-19T06:17:27;3.20;;;2.17;;
82346;SDS011;72757;56.900;60.610;2023-09-19T06:19:53;3.47;;;3.17;;
82346;SDS011;72757;56.900;60.610;2023-09-19T06:22:20;3.60;;;3.30;;
82346;SDS011;72757;56.900;60.610;2023-09-19T06:24:46;2.60;;;2.33;;
82346;SDS011;72757;56.900;60.610;2023-09-19T06:27:12;3.20;;;2.95;;
82346;SDS011;72757;56.900;60.610;2023-09-19T06:29:37;4.35;;;3.20;;
82346;SDS011;72757;56.900;60.610;2023-09-19T06:32:11;3.57;;;3.27;;
82346;SDS011;72757;56.900;60.610;2023-09-19T06:34:37;6.15;;;3.33;;
82346;SDS011;72757;56.900;60.610;2023-09-19T06:37:04;4.22;;;3.33;;
82346;SDS011;72757;56.900;60.610;2023-09-19T06:39:29;4.70;;;3.00;;
82346;SDS011;72757;56.900;60.610;2023-09-19T06:41:56;3.47;;;3.13;;
82346;SDS011;72757;56.900;60.610;2023-09-19T06:44:21;9.32;;;6.20;;
82346;SDS011;72757;56.900;60.610;2023-09-19T06:46:50;3.08;;;2.83;;
82346;SDS011;72757;56.900;60.610;2023-09-19T06:49:16;3.60;;;2.70;;
82346;SDS011;72757;56.900;60.610;2023-09-19T06:51:42;1.83;;;1.67;;
82346;SDS011;72757;56.900;60.610;2023-09-19T06:54:08;2.85;;;2.63;;
82346;SDS011;72757;56.900;60.610;2023-09-19T06:56:34;2.45;;;2.05;;
82346;SDS011;72757;56.900;60.610;2023-09-19T06:58:59;3.55;;;3.22;;
82346;SDS011;72757;56.900;60.610;2023-09-19T07:01:25;3.25;;;2.83;;
82346;SDS011;72757;56.900;60.610;2023-09-19T07:03:51;3.30;;;2.90;;
82346;SDS011;72757;56.900;60.610;2023-09-19T07:06:16;2.97;;;2.67;;
82346;SDS011;72757;56.900;60.610;2023-09-19T07:08:42;5.25;;;3.67;;
82346;SDS011;72757;56.900;60.610;2023-09-19T07:11:08;4.90;;;3.70;;
82346;SDS011;72757;56.900;60.610;2023-09-19T07:13:33;3.67;;;3.13;;
82346;SDS011;72757;56.900;60.610;2023-09-19T07:15:59;4.50;;;3.65;;
82346;SDS011;72757;56.900;60.610;2023-09-19T07:18:24;4.25;;;3.15;;
82346;SDS011;72757;56.900;60.610;2023-09-19T07:20:50;4.57;;;3.22;;
82346;SDS011;72757;56.900;60.610;2023-09-19T07:23:19;2.90;;;2.63;;
82346;SDS011;72757;56.900;60.610;2023-09-19T07:25:46;6.72;;;3.58;;
82346;SDS011;72757;56.900;60.610;2023-09-19T07:28:11;2.92;;;2.13;;
82346;SDS011;72757;56.900;60.610;2023-09-19T07:30:37;5.82;;;2.75;;
82346;SDS011;72757;56.900;60.610;2023-09-19T07:33:04;3.08;;;2.80;;
82346;SDS011;72757;56.900;60.610;2023-09-19T07:35:30;3.95;;;3.55;;
82346;SDS011;72757;56.900;60.610;2023-09-19T07:37:56;8.75;;;4.55;;
82346;SDS011;72757;56.900;60.610;2023-09-19T07:40:21;3.05;;;2.78;;
82346;SDS011;72757;56.900;60.610;2023-09-19T07:42:48;5.00;;;3.72;;
82346;SDS011;72757;56.900;60.610;2023-09-19T07:45:14;4.05;;;3.20;;
82346;SDS011;72757;56.900;60.610;2023-09-19T07:47:45;2.75;;;1.98;;
82346;SDS011;72757;56.900;60.610;2023-09-19T07:50:11;3.55;;;2.90;;
82346;SDS011;72757;56.900;60.610;2023-09-19T07:52:37;3.17;;;2.50;;
82346;SDS011;72757;56.900;60.610;2023-09-19T07:55:05;3.83;;;2.92;;
82346;SDS011;72757;56.900;60.610;2023-09-19T07:57:34;5.95;;;3.75;;
82346;SDS011;72757;56.900;60.610;2023-09-19T08:00:00;3.05;;;2.55;;
82346;SDS011;72757;56.900;60.610;2023-09-19T08:02:25;4.38;;;3.97;;
82346;SDS011;72757;56.900;60.610;2023-09-19T08:04:53;3.63;;;3.10;;
82346;SDS011;72757;56.900;60.610;2023-09-19T08:07:18;4.53;;;2.90;;
82346;SDS011;72757;56.900;60.610;2023-09-19T08:09:44;3.95;;;3.60;;
82346;SDS011;72757;56.900;60.610;2023-09-19T08:12:13;4.65;;;3.13;;
82346;SDS011;72757;56.900;60.610;2023-09-19T08:14:40;4.50;;;3.08;;
82346;SDS011;72757;56.900;60.610;2023-09-19T08:17:06;11.50;;;3.28;;
82346;SDS011;72757;56.900;60.610;2023-09-19T08:19:33;3.40;;;3.03;;
82346;SDS011;72757;56.900;60.610;2023-09-19T08:21:58;5.85;;;2.90;;
82346;SDS011;72757;56.900;60.610;2023-09-19T08:24:27;4.22;;;2.92;;
82346;SDS011;72757;56.900;60.610;2023-09-19T08:26:54;8.13;;;4.25;;
82346;SDS011;72757;56.900;60.610;2023-09-19T08:29:23;4.70;;;2.85;;
82346;SDS011;72757;56.900;60.610;2023-09-19T08:31:55;4.15;;;2.80;;
82346;SDS011;72757;56.900;60.610;2023-09-19T08:34:22;3.50;;;3.20;;
82346;SDS011;72757;56.900;60.610;2023-09-19T08:36:48;5.35;;;2.70;;
82346;SDS011;72757;56.900;60.610;2023-09-19T08:39:13;2.53;;;1.85;;
82346;SDS011;72757;56.900;60.610;2023-09-19T08:41:39;3.92;;;3.53;;
82346;SDS011;72757;56.900;60.610;2023-09-19T08:44:05;2.78;;;2.53;;
82346;SDS011;72757;56.900;60.610;2023-09-19T08:46:30;3.83;;;2.95;;
82346;SDS011;72757;56.900;60.610;2023-09-19T08:49:08;3.47;;;2.63;;
82346;SDS011;72757;56.900;60.610;2023-09-19T08:51:43;10.73;;;3.40;;
82346;SDS011;72757;56.900;60.610;2023-09-19T08:54:12;4.95;;;1.88;;
82346;SDS011;72757;56.900;60.610;2023-09-19T08:56:41;2.60;;;2.40;;
82346;SDS011;72757;56.900;60.610;2023-09-19T08:59:07;4.10;;;3.80;;
82346;SDS011;72757;56.900;60.610;2023-09-19T09:01:38;3.38;;;2.88;;
82346;SDS011;72757;56.900;60.610;2023-09-19T09:04:05;2.45;;;2.03;;
82346;SDS011;72757;56.900;60.610;2023-09-19T09:06:34;3.75;;;2.33;;
82346;SDS011;72757;56.900;60.610;2023-09-19T09:08:59;4.95;;;2.35;;
82346;SDS011;72757;56.900;60.610;2023-09-19T09:11:25;2.58;;;2.38;;
82346;SDS011;72757;56.900;60.610;2023-09-19T09:13:50;2.05;;;1.85;;
82346;SDS011;72757;56.900;60.610;2023-09-19T09:16:16;6.95;;;3.13;;
82346;SDS011;72757;56.900;60.610;2023-09-19T09:18:45;3.40;;;2.40;;
82346;SDS011;72757;56.900;60.610;2023-09-19T09:21:10;2.10;;;1.85;;
82346;SDS011;72757;56.900;60.610;2023-09-19T09:23:36;4.38;;;2.88;;
82346;SDS011;72757;56.900;60.610;2023-09-19T09:26:01;2.70;;;2.50;;
82346;SDS011;72757;56.900;60.610;2023-09-19T09:28:33;3.33;;;2.97;;
82346;SDS011;72757;56.900;60.610;2023-09-19T09:30:58;2.88;;;2.60;;
82346;SDS011;72757;56.900;60.610;2023-09-19T09:33:24;3.45;;;2.83;;
82346;SDS011;72757;56.900;60.610;2023-09-19T09:35:56;4.38;;;3.53;;
82346;SDS011;72757;56.900;60.610;2023-09-19T09:38:24;3.42;;;3.15;;
82346;SDS011;72757;56.900;60.610;2023-09-19T09:40:53;2.80;;;2.35;;
82346;SDS011;72757;56.900;60.610;2023-09-19T09:43:32;2.92;;;2.17;;
82346;SDS011;72757;56.900;60.610;2023-09-19T09:48:47;3.40;;;2.70;;
82346;SDS011;72757;56.900;60.610;2023-09-19T09:51:33;2.20;;;2.00;;
82346;SDS011;72757;56.900;60.610;2023-09-19T09:57:08;2.72;;;2.50;;
82346;SDS011;72757;56.900;60.610;2023-09-19T09:59:49;8.13;;;2.85;;
82346;SDS011;72757;56.900;60.610;2023-09-19T10:04:58;5.25;;;1.52;;
82346;SDS011;72757;56.900;60.610;2023-09-19T10:07:25;2.30;;;2.10;;
82346;SDS011;72757;56.900;60.610;2023-09-19T10:09:52;1.98;;;1.67;;
82346;SDS011;72757;56.900;60.610;2023-09-19T10:12:18;3.22;;;2.72;;
82346;SDS011;72757;56.900;60.610;2023-09-19T10:14:44;1.83;;;1.73;;
82346;SDS011;72757;56.900;60.610;2023-09-19T10:17:12;3.72;;;3.40;;
82346;SDS011;72757;56.900;60.610;2023-09-19T10:19:52;3.97;;;2.55;;
82346;SDS011;72757;56.900;60.610;2023-09-19T10:22:22;2.65;;;2.45;;
82346;SDS011;72757;56.900;60.610;2023-09-19T10:24:48;2.30;;;1.92;;
82346;SDS011;72757;56.900;60.610;2023-09-19T10:27:19;2.00;;;1.58;;
82346;SDS011;72757;56.900;60.610;2023-09-19T10:29:45;2.13;;;1.92;;
82346;SDS011;72757;56.900;60.610;2023-09-19T10:32:15;3.78;;;2.40;;
82346;SDS011;72757;56.900;60.610;2023-09-19T10:34:44;5.07;;;2.92;;
82346;SDS011;72757;56.900;60.610;2023-09-19T10:37:11;2.88;;;2.55;;
82346;SDS011;72757;56.900;60.610;2023-09-19T10:39:37;5.72;;;2.17;;
82346;SDS011;72757;56.900;60.610;2023-09-19T10:42:06;1.88;;;1.60;;
82346;SDS011;72757;56.900;60.610;2023-09-19T10:44:32;4.50;;;2.03;;
82346;SDS011;72757;56.900;60.610;2023-09-19T10:46:57;3.33;;;1.67;;
82346;SDS011;72757;56.900;60.610;2023-09-19T10:49:23;4.60;;;1.48;;
82346;SDS011;72757;56.900;60.610;2023-09-19T10:51:50;3.05;;;2.25;;
82346;SDS011;72757;56.900;60.610;2023-09-19T10:54:19;2.33;;;2.13;;
82346;SDS011;72757;56.900;60.610;2023-09-19T10:56:48;3.50;;;2.70;;
82346;SDS011;72757;56.900;60.610;2023-09-19T10:59:16;2.33;;;1.55;;
82346;SDS011;72757;56.900;60.610;2023-09-19T11:06:59;10.35;;;2.88;;
82346;SDS011;72757;56.900;60.610;2023-09-19T11:09:24;1.88;;;1.77;;
82346;SDS011;72757;56.900;60.610;2023-09-19T11:11:51;3.65;;;2.65;;
82346;SDS011;72757;56.900;60.610;2023-09-19T11:22:23;4.57;;;2.25;;
82346;SDS011;72757;56.900;60.610;2023-09-19T11:24:51;4.78;;;1.67;;
82346;SDS011;72757;56.900;60.610;2023-09-19T11:27:16;2.47;;;1.70;;
82346;SDS011;72757;56.900;60.610;2023-09-19T11:29:43;2.53;;;2.33;;
82346;SDS011;72757;56.900;60.610;2023-09-19T11:32:08;2.35;;;2.15;;
82346;SDS011;72757;56.900;60.610;2023-09-19T11:34:41;2.40;;;2.15;;
82346;SDS011;72757;56.900;60.610;2023-09-19T11:39:36;1.58;;;1.33;;
82346;SDS011;72757;56.900;60.610;2023-09-19T11:42:30;8.77;;;2.85;;
82346;SDS011;72757;56.900;60.610;2023-09-19T11:44:49;2.47;;;2.28;;
82346;SDS011;72757;56.900;60.610;2023-09-19T11:47:17;4.00;;;3.03;;
82346;SDS011;72757;56.900;60.610;2023-09-19T11:49:44;2.05;;;1.85;;
82346;SDS011;72757;56.900;60.610;2023-09-19T11:52:09;2.53;;;2.33;;
82346;SDS011;72757;56.900;60.610;2023-09-19T11:54:35;2.60;;;2.40;;
82346;SDS011;72757;56.900;60.610;2023-09-19T11:57:02;2.60;;;2.40;;
82346;SDS011;72757;56.900;60.610;2023-09-19T11:59:28;2.55;;;1.63;;
82346;SDS011;72757;56.900;60.610;2023-09-19T12:01:57;2.22;;;2.03;;
82346;SDS011;72757;56.900;60.610;2023-09-19T12:04:36;2.80;;;1.98;;
82346;SDS011;72757;56.900;60.610;2023-09-19T12:07:12;10.05;;;5.43;;
82346;SDS011;72757;56.900;60.610;2023-09-19T12:12:10;2.70;;;2.35;;
82346;SDS011;72757;56.900;60.610;2023-09-19T12:14:37;3.60;;;2.67;;
82346;SDS011;72757;56.900;60.610;2023-09-19T12:17:04;3.85;;;2.50;;
82346;SDS011;72757;56.900;60.610;2023-09-19T12:19:30;2.70;;;2.50;;
82346;SDS011;72757;56.900;60.610;2023-09-19T12:21:59;2.83;;;2.58;;
82346;SDS011;72757;56.900;60.610;2023-09-19T12:24:28;3.25;;;3.05;;
82346;SDS011;72757;56.900;60.610;2023-09-19T12:26:59;5.85;;;2.55;;
82346;SDS011;72757;56.900;60.610;2023-09-19T12:29:26;2.90;;;2.47;;
82346;SDS011;72757;56.900;60.610;2023-09-19T12:34:20;5.18;;;2.95;;
82346;SDS011;72757;56.900;60.610;2023-09-19T12:36:46;1.88;;;1.77;;
82346;SDS011;72757;56.900;60.610;2023-09-19T12:39:21;2.30;;;2.10;;
82346;SDS011;72757;56.900;60.610;2023-09-19T12:41:48;2.88;;;2.53;;
82346;SDS011;72757;56.900;60.610;2023-09-19T12:44:13;2.67;;;2.47;;
82346;SDS011;72757;56.900;60.610;2023-09-19T12:46:43;3.20;;;3.00;;
82346;SDS011;72757;56.900;60.610;2023-09-19T12:49:17;1.98;;;1.77;;
82346;SDS011;72757;56.900;60.610;2023-09-19T12:51:43;2.65;;;2.30;;
82346;SDS011;72757;56.900;60.610;2023-09-19T12:54:09;4.13;;;3.40;;
82346;SDS011;72757;56.900;60.610;2023-09-19T12:56:42;5.18;;;3.97;;
82346;SDS011;72757;56.900;60.610;2023-09-19T12:59:10;3.58;;;2.70;;
82346;SDS011;72757;56.900;60.610;2023-09-19T13:01:38;3.33;;;2.55;;
82346;SDS011;72757;56.900;60.610;2023-09-19T13:04:14;4.75;;;2.42;;
82346;SDS011;72757;56.900;60.610;2023-09-19T13:06:47;2.53;;;2.33;;
82346;SDS011;72757;56.900;60.610;2023-09-19T13:09:19;7.78;;;2.70;;
82346;SDS011;72757;56.900;60.610;2023-09-19T13:11:45;2.53;;;2.22;;
82346;SDS011;72757;56.900;60.610;2023-09-19T13:14:16;2.15;;;1.60;;
82346;SDS011;72757;56.900;60.610;2023-09-19T13:19:07;2.10;;;1.87;;
82346;SDS011;72757;56.900;60.610;2023-09-19T13:21:34;3.88;;;3.20;;
82346;SDS011;72757;56.900;60.610;2023-09-19T13:26:45;2.80;;;2.08;;
82346;SDS011;72757;56.900;60.610;2023-09-19T13:29:11;1.63;;;1.52;;
82346;SDS011;72757;56.900;60.610;2023-09-19T13:31:36;2.28;;;2.08;;
82346;SDS011;72757;56.900;60.610;2023-09-19T13:34:06;5.80;;;1.85;;
82346;SDS011;72757;56.900;60.610;2023-09-19T13:36:31;2.00;;;1.83;;
82346;SDS011;72757;56.900;60.610;2023-09-19T13:38:57;4.90;;;1.95;;
82346;SDS011;72757;56.900;60.610;2023-09-19T13:41:24;2.00;;;1.70;;
82346;SDS011;72757;56.900;60.610;2023-09-19T13:43:49;1.83;;;1.73;;
82346;SDS011;72757;56.900;60.610;2023-09-19T13:46:14;2.83;;;2.20;;
82346;SDS011;72757;56.900;60.610;2023-09-19T13:48:41;2.67;;;2.38;;
82346;SDS011;72757;56.900;60.610;2023-09-19T13:51:06;8.27;;;2.33;;
82346;SDS011;72757;56.900;60.610;2023-09-19T13:53:32;3.35;;;3.05;;
82346;SDS011;72757;56.900;60.610;2023-09-19T13:55:57;3.75;;;2.60;;
82346;SDS011;72757;56.900;60.610;2023-09-19T13:58:22;4.18;;;3.08;;
82346;SDS011;72757;56.900;60.610;2023-09-19T14:00:49;3.45;;;2.53;;
82346;SDS011;72757;56.900;60.610;2023-09-19T14:03:14;3.97;;;2.53;;
82346;SDS011;72757;56.900;60.610;2023-09-19T14:05:39;2.92;;;2.72;;
82346;SDS011;72757;56.900;60.610;2023-09-19T14:08:05;3.35;;;2.67;;
82346;SDS011;72757;56.900;60.610;2023-09-19T14:10:30;2.33;;;2.13;;
82346;SDS011;72757;56.900;60.610;2023-09-19T14:12:56;2.20;;;2.05;;
82346;SDS011;72757;56.900;60.610;2023-09-19T14:15:23;2.35;;;2.15;;
82346;SDS011;72757;56.900;60.610;2023-09-19T14:17:54;3.40;;;1.60;;
82346;SDS011;72757;56.900;60.610;2023-09-19T14:20:21;2.45;;;2.13;;
82346;SDS011;72757;56.900;60.610;2023-09-19T14:22:47;2.15;;;1.80;;
82346;SDS011;72757;56.900;60.610;2023-09-19T14:25:13;4.03;;;3.40;;
82346;SDS011;72757;56.900;60.610;2023-09-19T14:27:38;2.22;;;2.13;;
82346;SDS011;72757;56.900;60.610;2023-09-19T14:30:04;3.25;;;2.90;;
82346;SDS011;72757;56.900;60.610;2023-09-19T14:32:30;3.75;;;3.35;;
82346;SDS011;72757;56.900;60.610;2023-09-19T14:34:55;3.60;;;3.27;;
82346;SDS011;72757;56.900;60.610;2023-09-19T14:37:21;3.73;;;3.30;;
82346;SDS011;72757;56.900;60.610;2023-09-19T14:39:46;4.03;;;3.30;;
82346;SDS011;72757;56.900;60.610;2023-09-19T14:42:11;14.45;;;3.85;;
82346;SDS011;72757;56.900;60.610;2023-09-19T14:44:37;7.28;;;4.28;;
82346;SDS011;72757;56.900;60.610;2023-09-19T14:47:03;3.97;;;3.63;;
82346;SDS011;72757;56.900;60.610;2023-09-19T14:49:33;6.57;;;4.07;;
82346;SDS011;72757;56.900;60.610;2023-09-19T14:51:58;3.35;;;2.67;;
82346;SDS011;72757;56.900;60.610;2023-09-19T14:54:24;2.42;;;2.22;;
82346;SDS011;72757;56.900;60.610;2023-09-19T14:56:49;7.03;;;2.65;;
82346;SDS011;72757;56.900;60.610;2023-09-19T14:59:19;3.17;;;2.47;;
82346;SDS011;72757;56.900;60.610;2023-09-19T15:01:45;2.55;;;2.00;;
82346;SDS011;72757;56.900;60.610;2023-09-19T15:04:10;3.28;;;2.38;;
82346;SDS011;72757;56.900;60.610;2023-09-19T15:06:36;8.50;;;3.45;;
82346;SDS011;72757;56.900;60.610;2023-09-19T15:09:01;2.13;;;2.03;;
82346;SDS011;72757;56.900;60.610;2023-09-19T15:11:29;2.50;;;2.17;;
82346;SDS011;72757;56.900;60.610;2023-09-19T15:13:55;2.83;;;2.63;;
82346;SDS011;72757;56.900;60.610;2023-09-19T15:16:21;3.47;;;3.17;;
82346;SDS011;72757;56.900;60.610;2023-09-19T15:18:47;6.22;;;4.13;;
82346;SDS011;72757;56.900;60.610;2023-09-19T15:21:12;4.75;;;3.85;;
82346;SDS011;72757;56.900;60.610;2023-09-19T15:23:39;10.10;;;4.55;;
82346;SDS011;72757;56.900;60.610;2023-09-19T15:26:06;5.63;;;3.35;;
82346;SDS011;72757;56.900;60.610;2023-09-19T15:28:32;6.80;;;3.88;;
82346;SDS011;72757;56.900;60.610;2023-09-19T15:31:02;5.10;;;3.83;;
82346;SDS011;72757;56.900;60.610;2023-09-19T15:33:27;14.25;;;5.10;;